Weather at Akbarpur Airport

Public forecast

Using degrees Celsius for public forecast. Weather courtesy of forecast.io.

Closest aviation weather report (METAR) to Akbarpur Airport

Report is more than 6 hours old.

Closest report is Gorakhpur Airport, 50.5 nm (93.5 km) ENE. Retrieved 2021/01/21 19:30 UTC (4 days ago):

VEGK 211930Z VRB01KT 0200 FG SKY OBS 08/08 Q1014 NOSIG

Closest aviation forecast (TAF) to Akbarpur Airport

Forecast is more than 6 hours old.

Closest forecast is Gorakhpur Airport, 50.5 nm (93.5 km) ENE. Retrieved 2021/01/25 12:30 UTC (9 hours ago):

TAF VEGK 250930Z 2512/2524 VRB02KT 0800 FG SCT020 BKN030 BECMG 2513/2515 0500 FG VV/// BECMG 2516/2518 0000 FG VV///